sensor_id;sensor_type;location;lat;lon;timestamp;P1;durP1;ratioP1;P2;durP2;ratioP2
64459;SDS011;50828;53.756;21.140;2022-10-23T00:03:26;14.30;;;8.50;;
64459;SDS011;50828;53.756;21.140;2022-10-23T00:08:33;15.00;;;8.30;;
64459;SDS011;50828;53.756;21.140;2022-10-23T00:13:41;19.70;;;10.20;;
64459;SDS011;50828;53.756;21.140;2022-10-23T00:18:49;18.90;;;9.80;;
64459;SDS011;50828;53.756;21.140;2022-10-23T00:23:56;21.60;;;10.70;;
64459;SDS011;50828;53.756;21.140;2022-10-23T00:29:04;19.90;;;10.40;;
64459;SDS011;50828;53.756;21.140;2022-10-23T00:34:12;20.20;;;10.00;;
64459;SDS011;50828;53.756;21.140;2022-10-23T00:39:19;17.80;;;9.50;;
64459;SDS011;50828;53.756;21.140;2022-10-23T00:50:17;21.40;;;10.80;;
64459;SDS011;50828;53.756;21.140;2022-10-23T00:55:27;22.20;;;11.60;;
64459;SDS011;50828;53.756;21.140;2022-10-23T01:00:42;26.90;;;13.40;;
64459;SDS011;50828;53.756;21.140;2022-10-23T01:05:52;22.90;;;12.20;;
64459;SDS011;50828;53.756;21.140;2022-10-23T01:11:06;28.10;;;13.90;;
64459;SDS011;50828;53.756;21.140;2022-10-23T01:16:19;29.00;;;14.20;;
64459;SDS011;50828;53.756;21.140;2022-10-23T01:21:34;27.40;;;14.10;;
64459;SDS011;50828;53.756;21.140;2022-10-23T01:32:23;31.10;;;14.80;;
64459;SDS011;50828;53.756;21.140;2022-10-23T01:37:38;27.50;;;13.90;;
64459;SDS011;50828;53.756;21.140;2022-10-23T01:47:57;37.30;;;14.30;;
64459;SDS011;50828;53.756;21.140;2022-10-23T01:53:08;28.70;;;14.10;;
64459;SDS011;50828;53.756;21.140;2022-10-23T01:58:16;33.30;;;14.10;;
64459;SDS011;50828;53.756;21.140;2022-10-23T02:03:26;25.80;;;13.30;;
64459;SDS011;50828;53.756;21.140;2022-10-23T02:08:35;29.90;;;13.90;;
64459;SDS011;50828;53.756;21.140;2022-10-23T02:13:43;28.60;;;13.50;;
64459;SDS011;50828;53.756;21.140;2022-10-23T02:18:58;26.10;;;13.20;;
64459;SDS011;50828;53.756;21.140;2022-10-23T02:24:12;26.30;;;12.70;;
64459;SDS011;50828;53.756;21.140;2022-10-23T02:29:23;27.40;;;13.90;;
64459;SDS011;50828;53.756;21.140;2022-10-23T02:34:34;26.70;;;12.60;;
64459;SDS011;50828;53.756;21.140;2022-10-23T02:39:44;25.90;;;12.80;;
64459;SDS011;50828;53.756;21.140;2022-10-23T02:44:55;24.70;;;12.20;;
64459;SDS011;50828;53.756;21.140;2022-10-23T02:50:12;22.90;;;11.20;;
64459;SDS011;50828;53.756;21.140;2022-10-23T02:55:32;23.60;;;11.30;;
64459;SDS011;50828;53.756;21.140;2022-10-23T03:00:48;19.30;;;10.40;;
64459;SDS011;50828;53.756;21.140;2022-10-23T03:06:00;21.00;;;11.00;;
64459;SDS011;50828;53.756;21.140;2022-10-23T03:11:08;20.30;;;10.70;;
64459;SDS011;50828;53.756;21.140;2022-10-23T03:16:16;22.60;;;10.90;;
64459;SDS011;50828;53.756;21.140;2022-10-23T03:26:33;22.30;;;9.90;;
64459;SDS011;50828;53.756;21.140;2022-10-23T03:31:41;20.90;;;10.60;;
64459;SDS011;50828;53.756;21.140;2022-10-23T03:36:48;21.00;;;11.00;;
64459;SDS011;50828;53.756;21.140;2022-10-23T03:41:56;25.20;;;11.10;;
64459;SDS011;50828;53.756;21.140;2022-10-23T03:47:04;23.60;;;10.60;;
64459;SDS011;50828;53.756;21.140;2022-10-23T03:52:14;21.50;;;9.90;;
64459;SDS011;50828;53.756;21.140;2022-10-23T03:57:22;21.00;;;10.70;;
64459;SDS011;50828;53.756;21.140;2022-10-23T04:02:29;19.70;;;10.00;;
64459;SDS011;50828;53.756;21.140;2022-10-23T04:07:37;21.70;;;10.10;;
64459;SDS011;50828;53.756;21.140;2022-10-23T04:12:45;23.60;;;10.80;;
64459;SDS011;50828;53.756;21.140;2022-10-23T04:17:53;23.30;;;10.50;;
64459;SDS011;50828;53.756;21.140;2022-10-23T04:23:00;20.00;;;9.80;;
64459;SDS011;50828;53.756;21.140;2022-10-23T04:28:09;21.40;;;10.20;;
64459;SDS011;50828;53.756;21.140;2022-10-23T04:33:17;23.90;;;10.30;;
64459;SDS011;50828;53.756;21.140;2022-10-23T04:38:26;19.10;;;9.20;;
64459;SDS011;50828;53.756;21.140;2022-10-23T04:43:35;20.70;;;9.20;;
64459;SDS011;50828;53.756;21.140;2022-10-23T04:48:43;23.20;;;9.70;;
64459;SDS011;50828;53.756;21.140;2022-10-23T04:53:58;17.70;;;9.20;;
64459;SDS011;50828;53.756;21.140;2022-10-23T04:59:32;19.80;;;9.10;;
64459;SDS011;50828;53.756;21.140;2022-10-23T05:04:40;19.00;;;9.20;;
64459;SDS011;50828;53.756;21.140;2022-10-23T05:10:08;19.80;;;10.20;;
64459;SDS011;50828;53.756;21.140;2022-10-23T05:15:23;18.30;;;9.60;;
64459;SDS011;50828;53.756;21.140;2022-10-23T05:20:32;20.60;;;9.00;;
64459;SDS011;50828;53.756;21.140;2022-10-23T05:25:43;20.40;;;9.80;;
64459;SDS011;50828;53.756;21.140;2022-10-23T05:30:53;24.80;;;10.00;;
64459;SDS011;50828;53.756;21.140;2022-10-23T05:36:04;18.90;;;9.30;;
64459;SDS011;50828;53.756;21.140;2022-10-23T05:41:13;21.60;;;9.80;;
64459;SDS011;50828;53.756;21.140;2022-10-23T05:46:21;19.30;;;9.60;;
64459;SDS011;50828;53.756;21.140;2022-10-23T05:51:53;21.80;;;9.30;;
64459;SDS011;50828;53.756;21.140;2022-10-23T05:57:10;21.50;;;9.80;;
64459;SDS011;50828;53.756;21.140;2022-10-23T06:02:20;18.10;;;8.40;;
64459;SDS011;50828;53.756;21.140;2022-10-23T06:07:37;20.30;;;9.70;;
64459;SDS011;50828;53.756;21.140;2022-10-23T06:12:45;18.60;;;9.30;;
64459;SDS011;50828;53.756;21.140;2022-10-23T06:17:53;19.70;;;9.40;;
64459;SDS011;50828;53.756;21.140;2022-10-23T06:23:00;20.30;;;9.90;;
64459;SDS011;50828;53.756;21.140;2022-10-23T06:28:40;20.20;;;10.20;;
64459;SDS011;50828;53.756;21.140;2022-10-23T06:33:48;20.90;;;9.80;;
64459;SDS011;50828;53.756;21.140;2022-10-23T06:38:55;23.00;;;10.80;;
64459;SDS011;50828;53.756;21.140;2022-10-23T06:44:32;21.50;;;9.40;;
64459;SDS011;50828;53.756;21.140;2022-10-23T06:49:44;21.00;;;10.80;;
64459;SDS011;50828;53.756;21.140;2022-10-23T06:54:52;26.60;;;11.40;;
64459;SDS011;50828;53.756;21.140;2022-10-23T07:00:05;21.00;;;10.30;;
64459;SDS011;50828;53.756;21.140;2022-10-23T07:05:40;24.60;;;11.20;;
64459;SDS011;50828;53.756;21.140;2022-10-23T07:10:48;20.10;;;10.60;;
64459;SDS011;50828;53.756;21.140;2022-10-23T07:15:56;20.70;;;10.90;;
64459;SDS011;50828;53.756;21.140;2022-10-23T07:21:04;26.80;;;11.00;;
64459;SDS011;50828;53.756;21.140;2022-10-23T07:26:13;22.50;;;10.90;;
64459;SDS011;50828;53.756;21.140;2022-10-23T07:31:20;27.70;;;11.20;;
64459;SDS011;50828;53.756;21.140;2022-10-23T07:36:49;22.70;;;11.10;;
64459;SDS011;50828;53.756;21.140;2022-10-23T07:41:58;22.80;;;10.70;;
64459;SDS011;50828;53.756;21.140;2022-10-23T07:47:05;24.70;;;12.00;;
64459;SDS011;50828;53.756;21.140;2022-10-23T07:52:14;24.20;;;12.30;;
64459;SDS011;50828;53.756;21.140;2022-10-23T07:57:40;22.20;;;11.00;;
64459;SDS011;50828;53.756;21.140;2022-10-23T08:03:06;27.60;;;13.00;;
64459;SDS011;50828;53.756;21.140;2022-10-23T08:08:15;22.30;;;12.20;;
64459;SDS011;50828;53.756;21.140;2022-10-23T08:13:23;25.00;;;12.00;;
64459;SDS011;50828;53.756;21.140;2022-10-23T08:18:35;22.90;;;12.20;;
64459;SDS011;50828;53.756;21.140;2022-10-23T08:23:44;24.00;;;11.20;;
64459;SDS011;50828;53.756;21.140;2022-10-23T08:28:51;25.90;;;12.30;;
64459;SDS011;50828;53.756;21.140;2022-10-23T08:34:00;28.00;;;12.10;;
64459;SDS011;50828;53.756;21.140;2022-10-23T08:39:08;22.30;;;11.10;;
64459;SDS011;50828;53.756;21.140;2022-10-23T08:44:24;22.00;;;11.60;;
64459;SDS011;50828;53.756;21.140;2022-10-23T08:49:39;29.70;;;11.30;;
64459;SDS011;50828;53.756;21.140;2022-10-23T08:55:01;25.80;;;11.20;;
64459;SDS011;50828;53.756;21.140;2022-10-23T09:00:18;21.10;;;10.50;;
64459;SDS011;50828;53.756;21.140;2022-10-23T09:05:26;20.20;;;10.30;;
64459;SDS011;50828;53.756;21.140;2022-10-23T09:10:48;22.50;;;10.50;;
64459;SDS011;50828;53.756;21.140;2022-10-23T09:16:04;25.60;;;11.00;;
64459;SDS011;50828;53.756;21.140;2022-10-23T09:21:18;20.90;;;10.10;;
64459;SDS011;50828;53.756;21.140;2022-10-23T09:26:29;22.80;;;11.10;;
64459;SDS011;50828;53.756;21.140;2022-10-23T09:31:36;21.50;;;10.50;;
64459;SDS011;50828;53.756;21.140;2022-10-23T09:36:57;21.10;;;9.90;;
64459;SDS011;50828;53.756;21.140;2022-10-23T09:42:19;24.50;;;10.60;;
64459;SDS011;50828;53.756;21.140;2022-10-23T09:47:28;8.70;;;3.40;;
64459;SDS011;50828;53.756;21.140;2022-10-23T09:52:36;19.00;;;9.70;;
64459;SDS011;50828;53.756;21.140;2022-10-23T09:57:45;23.10;;;10.60;;
64459;SDS011;50828;53.756;21.140;2022-10-23T10:02:57;20.30;;;10.00;;
64459;SDS011;50828;53.756;21.140;2022-10-23T10:08:13;19.10;;;9.90;;
64459;SDS011;50828;53.756;21.140;2022-10-23T10:13:32;17.90;;;9.40;;
64459;SDS011;50828;53.756;21.140;2022-10-23T10:18:52;18.40;;;8.60;;
64459;SDS011;50828;53.756;21.140;2022-10-23T10:24:09;16.50;;;8.80;;
64459;SDS011;50828;53.756;21.140;2022-10-23T10:29:23;20.90;;;7.60;;
64459;SDS011;50828;53.756;21.140;2022-10-23T10:34:44;18.00;;;8.40;;
64459;SDS011;50828;53.756;21.140;2022-10-23T10:39:59;13.70;;;7.30;;
64459;SDS011;50828;53.756;21.140;2022-10-23T10:45:22;17.70;;;8.00;;
64459;SDS011;50828;53.756;21.140;2022-10-23T10:50:38;12.30;;;6.80;;
64459;SDS011;50828;53.756;21.140;2022-10-23T10:55:56;13.20;;;6.50;;
64459;SDS011;50828;53.756;21.140;2022-10-23T11:01:07;14.00;;;6.80;;
64459;SDS011;50828;53.756;21.140;2022-10-23T11:06:21;9.90;;;6.00;;
64459;SDS011;50828;53.756;21.140;2022-10-23T11:11:33;11.80;;;5.40;;
64459;SDS011;50828;53.756;21.140;2022-10-23T11:16:46;8.80;;;5.30;;
64459;SDS011;50828;53.756;21.140;2022-10-23T11:21:57;7.90;;;4.80;;
64459;SDS011;50828;53.756;21.140;2022-10-23T11:27:16;8.10;;;4.80;;
64459;SDS011;50828;53.756;21.140;2022-10-23T11:38:06;9.40;;;5.30;;
64459;SDS011;50828;53.756;21.140;2022-10-23T11:43:26;14.10;;;5.80;;
64459;SDS011;50828;53.756;21.140;2022-10-23T11:48:36;10.70;;;5.50;;
64459;SDS011;50828;53.756;21.140;2022-10-23T11:53:45;9.90;;;6.60;;
64459;SDS011;50828;53.756;21.140;2022-10-23T11:58:53;13.00;;;6.40;;
64459;SDS011;50828;53.756;21.140;2022-10-23T12:04:04;12.50;;;7.50;;
64459;SDS011;50828;53.756;21.140;2022-10-23T12:09:26;11.10;;;6.60;;
64459;SDS011;50828;53.756;21.140;2022-10-23T12:14:37;14.30;;;6.60;;
64459;SDS011;50828;53.756;21.140;2022-10-23T12:19:46;13.40;;;7.30;;
64459;SDS011;50828;53.756;21.140;2022-10-23T12:24:57;14.90;;;7.50;;
64459;SDS011;50828;53.756;21.140;2022-10-23T12:30:15;15.50;;;7.50;;
64459;SDS011;50828;53.756;21.140;2022-10-23T12:35:45;12.40;;;6.90;;
64459;SDS011;50828;53.756;21.140;2022-10-23T12:41:07;15.30;;;7.90;;
64459;SDS011;50828;53.756;21.140;2022-10-23T12:46:24;16.90;;;7.70;;
64459;SDS011;50828;53.756;21.140;2022-10-23T12:51:35;11.80;;;7.00;;
64459;SDS011;50828;53.756;21.140;2022-10-23T12:56:42;13.40;;;7.90;;
64459;SDS011;50828;53.756;21.140;2022-10-23T13:01:51;14.50;;;8.30;;
64459;SDS011;50828;53.756;21.140;2022-10-23T13:06:59;15.90;;;8.40;;
64459;SDS011;50828;53.756;21.140;2022-10-23T13:12:08;13.40;;;8.50;;
64459;SDS011;50828;53.756;21.140;2022-10-23T13:17:33;17.30;;;8.50;;
64459;SDS011;50828;53.756;21.140;2022-10-23T13:22:43;13.70;;;8.30;;
64459;SDS011;50828;53.756;21.140;2022-10-23T13:27:51;14.70;;;7.40;;
64459;SDS011;50828;53.756;21.140;2022-10-23T13:33:29;12.50;;;7.90;;
64459;SDS011;50828;53.756;21.140;2022-10-23T13:38:38;14.70;;;6.80;;
64459;SDS011;50828;53.756;21.140;2022-10-23T13:43:48;14.40;;;7.60;;
64459;SDS011;50828;53.756;21.140;2022-10-23T13:48:55;13.90;;;8.10;;
64459;SDS011;50828;53.756;21.140;2022-10-23T13:54:02;14.40;;;7.90;;
64459;SDS011;50828;53.756;21.140;2022-10-23T13:59:10;13.00;;;8.20;;
64459;SDS011;50828;53.756;21.140;2022-10-23T14:04:18;17.60;;;8.80;;
64459;SDS011;50828;53.756;21.140;2022-10-23T14:09:26;13.80;;;7.80;;
64459;SDS011;50828;53.756;21.140;2022-10-23T14:14:34;19.10;;;9.00;;
64459;SDS011;50828;53.756;21.140;2022-10-23T14:19:41;15.80;;;8.30;;
64459;SDS011;50828;53.756;21.140;2022-10-23T14:24:49;16.40;;;8.90;;
64459;SDS011;50828;53.756;21.140;2022-10-23T14:29:56;12.90;;;7.40;;
64459;SDS011;50828;53.756;21.140;2022-10-23T14:35:04;14.10;;;8.50;;
64459;SDS011;50828;53.756;21.140;2022-10-23T14:40:12;12.20;;;7.60;;
64459;SDS011;50828;53.756;21.140;2022-10-23T14:45:20;17.00;;;8.90;;
64459;SDS011;50828;53.756;21.140;2022-10-23T14:50:27;15.70;;;8.30;;
64459;SDS011;50828;53.756;21.140;2022-10-23T14:55:36;14.50;;;8.30;;
64459;SDS011;50828;53.756;21.140;2022-10-23T15:00:43;15.80;;;9.00;;
64459;SDS011;50828;53.756;21.140;2022-10-23T15:06:01;13.50;;;7.70;;
64459;SDS011;50828;53.756;21.140;2022-10-23T15:11:10;13.40;;;8.20;;
64459;SDS011;50828;53.756;21.140;2022-10-23T15:16:17;13.30;;;7.60;;
64459;SDS011;50828;53.756;21.140;2022-10-23T15:21:25;13.90;;;7.80;;
64459;SDS011;50828;53.756;21.140;2022-10-23T15:26:32;10.60;;;7.00;;
64459;SDS011;50828;53.756;21.140;2022-10-23T15:31:41;15.60;;;7.80;;
64459;SDS011;50828;53.756;21.140;2022-10-23T15:36:50;13.30;;;7.30;;
64459;SDS011;50828;53.756;21.140;2022-10-23T15:41:59;12.70;;;7.40;;
64459;SDS011;50828;53.756;21.140;2022-10-23T15:47:09;17.50;;;8.60;;
64459;SDS011;50828;53.756;21.140;2022-10-23T15:52:16;13.10;;;8.20;;
64459;SDS011;50828;53.756;21.140;2022-10-23T15:57:23;12.40;;;7.70;;
64459;SDS011;50828;53.756;21.140;2022-10-23T16:02:31;13.60;;;8.00;;
64459;SDS011;50828;53.756;21.140;2022-10-23T16:07:39;14.10;;;7.80;;
64459;SDS011;50828;53.756;21.140;2022-10-23T16:12:46;14.20;;;7.50;;
64459;SDS011;50828;53.756;21.140;2022-10-23T16:17:53;11.90;;;7.80;;
64459;SDS011;50828;53.756;21.140;2022-10-23T16:23:00;15.30;;;7.60;;
64459;SDS011;50828;53.756;21.140;2022-10-23T16:28:08;15.80;;;7.70;;
64459;SDS011;50828;53.756;21.140;2022-10-23T16:33:15;11.90;;;8.00;;
64459;SDS011;50828;53.756;21.140;2022-10-23T16:38:22;13.20;;;7.80;;
64459;SDS011;50828;53.756;21.140;2022-10-23T16:43:31;12.90;;;7.60;;
64459;SDS011;50828;53.756;21.140;2022-10-23T16:48:45;12.30;;;7.60;;
64459;SDS011;50828;53.756;21.140;2022-10-23T16:53:53;12.20;;;7.50;;
64459;SDS011;50828;53.756;21.140;2022-10-23T16:59:01;11.70;;;7.10;;
64459;SDS011;50828;53.756;21.140;2022-10-23T17:04:08;11.10;;;6.70;;
64459;SDS011;50828;53.756;21.140;2022-10-23T17:09:16;10.50;;;6.20;;
64459;SDS011;50828;53.756;21.140;2022-10-23T17:14:25;11.40;;;6.90;;
64459;SDS011;50828;53.756;21.140;2022-10-23T17:19:33;11.60;;;7.50;;
64459;SDS011;50828;53.756;21.140;2022-10-23T17:24:49;10.90;;;6.60;;
64459;SDS011;50828;53.756;21.140;2022-10-23T17:29:57;13.00;;;7.60;;
64459;SDS011;50828;53.756;21.140;2022-10-23T17:35:05;12.50;;;7.70;;
64459;SDS011;50828;53.756;21.140;2022-10-23T17:40:13;13.00;;;7.10;;
64459;SDS011;50828;53.756;21.140;2022-10-23T17:45:27;13.60;;;8.00;;
64459;SDS011;50828;53.756;21.140;2022-10-23T17:50:36;16.70;;;8.90;;
64459;SDS011;50828;53.756;21.140;2022-10-23T17:55:44;16.50;;;8.00;;
64459;SDS011;50828;53.756;21.140;2022-10-23T18:00:51;16.60;;;8.60;;
64459;SDS011;50828;53.756;21.140;2022-10-23T18:05:59;16.20;;;8.20;;
64459;SDS011;50828;53.756;21.140;2022-10-23T18:11:15;13.70;;;8.40;;
64459;SDS011;50828;53.756;21.140;2022-10-23T18:16:23;17.80;;;9.20;;
64459;SDS011;50828;53.756;21.140;2022-10-23T18:21:31;14.10;;;8.60;;
64459;SDS011;50828;53.756;21.140;2022-10-23T18:26:40;14.10;;;7.80;;
64459;SDS011;50828;53.756;21.140;2022-10-23T18:31:48;14.10;;;9.30;;
64459;SDS011;50828;53.756;21.140;2022-10-23T18:36:56;16.60;;;9.40;;
64459;SDS011;50828;53.756;21.140;2022-10-23T18:42:03;17.00;;;9.90;;
64459;SDS011;50828;53.756;21.140;2022-10-23T18:47:10;14.70;;;10.00;;
64459;SDS011;50828;53.756;21.140;2022-10-23T18:52:23;15.40;;;9.90;;
64459;SDS011;50828;53.756;21.140;2022-10-23T18:57:30;14.80;;;9.60;;
64459;SDS011;50828;53.756;21.140;2022-10-23T19:02:38;16.40;;;9.80;;
64459;SDS011;50828;53.756;21.140;2022-10-23T19:07:45;16.80;;;9.10;;
64459;SDS011;50828;53.756;21.140;2022-10-23T19:12:54;17.50;;;10.20;;
64459;SDS011;50828;53.756;21.140;2022-10-23T19:18:01;18.00;;;10.60;;
64459;SDS011;50828;53.756;21.140;2022-10-23T19:23:09;19.20;;;9.90;;
64459;SDS011;50828;53.756;21.140;2022-10-23T19:28:18;18.00;;;10.50;;
64459;SDS011;50828;53.756;21.140;2022-10-23T19:33:26;15.90;;;10.00;;
64459;SDS011;50828;53.756;21.140;2022-10-23T19:38:33;17.10;;;10.80;;
64459;SDS011;50828;53.756;21.140;2022-10-23T19:43:42;20.00;;;10.50;;
64459;SDS011;50828;53.756;21.140;2022-10-23T19:48:50;16.20;;;9.10;;
64459;SDS011;50828;53.756;21.140;2022-10-23T19:53:57;16.40;;;8.20;;
64459;SDS011;50828;53.756;21.140;2022-10-23T19:59:05;15.20;;;7.30;;
64459;SDS011;50828;53.756;21.140;2022-10-23T20:04:15;11.50;;;5.20;;
64459;SDS011;50828;53.756;21.140;2022-10-23T20:09:23;13.10;;;5.30;;
64459;SDS011;50828;53.756;21.140;2022-10-23T20:14:30;12.40;;;5.90;;
64459;SDS011;50828;53.756;21.140;2022-10-23T20:19:38;20.90;;;7.30;;
64459;SDS011;50828;53.756;21.140;2022-10-23T20:24:47;14.10;;;7.20;;
64459;SDS011;50828;53.756;21.140;2022-10-23T20:29:55;22.00;;;11.40;;
64459;SDS011;50828;53.756;21.140;2022-10-23T20:35:02;37.30;;;15.40;;
64459;SDS011;50828;53.756;21.140;2022-10-23T20:40:11;22.30;;;11.30;;
64459;SDS011;50828;53.756;21.140;2022-10-23T20:45:19;15.50;;;9.20;;
64459;SDS011;50828;53.756;21.140;2022-10-23T20:50:26;13.00;;;8.10;;
64459;SDS011;50828;53.756;21.140;2022-10-23T20:55:35;11.30;;;8.00;;
64459;SDS011;50828;53.756;21.140;2022-10-23T21:00:46;11.00;;;7.80;;
64459;SDS011;50828;53.756;21.140;2022-10-23T21:05:55;14.10;;;8.60;;
64459;SDS011;50828;53.756;21.140;2022-10-23T21:11:06;11.10;;;7.50;;
64459;SDS011;50828;53.756;21.140;2022-10-23T21:16:18;11.60;;;7.70;;
64459;SDS011;50828;53.756;21.140;2022-10-23T21:21:31;12.40;;;8.40;;
64459;SDS011;50828;53.756;21.140;2022-10-23T21:26:40;13.90;;;8.30;;
64459;SDS011;50828;53.756;21.140;2022-10-23T21:31:51;12.30;;;7.90;;
64459;SDS011;50828;53.756;21.140;2022-10-23T21:36:59;13.30;;;8.00;;
64459;SDS011;50828;53.756;21.140;2022-10-23T21:42:17;15.50;;;9.00;;
64459;SDS011;50828;53.756;21.140;2022-10-23T21:47:24;13.10;;;7.70;;
64459;SDS011;50828;53.756;21.140;2022-10-23T21:52:32;12.10;;;7.80;;
64459;SDS011;50828;53.756;21.140;2022-10-23T21:57:40;12.10;;;8.00;;
64459;SDS011;50828;53.756;21.140;2022-10-23T22:02:48;12.50;;;7.90;;
64459;SDS011;50828;53.756;21.140;2022-10-23T22:07:55;12.00;;;7.90;;
64459;SDS011;50828;53.756;21.140;2022-10-23T22:13:03;11.00;;;7.50;;
64459;SDS011;50828;53.756;21.140;2022-10-23T22:18:10;11.90;;;7.90;;
64459;SDS011;50828;53.756;21.140;2022-10-23T22:23:18;13.40;;;8.40;;
64459;SDS011;50828;53.756;21.140;2022-10-23T22:28:25;12.10;;;8.60;;
64459;SDS011;50828;53.756;21.140;2022-10-23T22:33:32;12.20;;;8.00;;
64459;SDS011;50828;53.756;21.140;2022-10-23T22:38:40;12.80;;;8.30;;
64459;SDS011;50828;53.756;21.140;2022-10-23T22:43:48;12.40;;;8.80;;
64459;SDS011;50828;53.756;21.140;2022-10-23T22:49:00;11.60;;;7.80;;
64459;SDS011;50828;53.756;21.140;2022-10-23T22:54:13;14.20;;;8.40;;
64459;SDS011;50828;53.756;21.140;2022-10-23T22:59:20;11.50;;;8.50;;
64459;SDS011;50828;53.756;21.140;2022-10-23T23:04:27;12.50;;;8.30;;
64459;SDS011;50828;53.756;21.140;2022-10-23T23:09:42;10.60;;;7.50;;
64459;SDS011;50828;53.756;21.140;2022-10-23T23:14:49;12.10;;;7.90;;
64459;SDS011;50828;53.756;21.140;2022-10-23T23:19:57;11.90;;;8.00;;
64459;SDS011;50828;53.756;21.140;2022-10-23T23:25:04;11.50;;;8.20;;
64459;SDS011;50828;53.756;21.140;2022-10-23T23:30:13;10.60;;;7.70;;
64459;SDS011;50828;53.756;21.140;2022-10-23T23:35:20;11.70;;;7.50;;
64459;SDS011;50828;53.756;21.140;2022-10-23T23:40:28;11.10;;;8.10;;
64459;SDS011;50828;53.756;21.140;2022-10-23T23:45:35;13.70;;;9.20;;
64459;SDS011;50828;53.756;21.140;2022-10-23T23:50:42;12.90;;;8.20;;
64459;SDS011;50828;53.756;21.140;2022-10-23T23:55:49;14.30;;;9.10;;
